createdAt,value
2018-02-27T00:01:59.446Z,3.03
2018-02-27T00:04:27.026Z,3.13
2018-02-27T00:06:54.387Z,3.20
2018-02-27T00:09:21.760Z,3.07
2018-02-27T00:11:49.151Z,3.30
2018-02-27T00:14:16.625Z,3.00
2018-02-27T00:16:44.034Z,3.13
2018-02-27T00:19:11.496Z,3.23
2018-02-27T00:21:38.984Z,3.27
2018-02-27T00:24:06.448Z,3.00
2018-02-27T00:26:33.834Z,2.87
2018-02-27T00:29:01.210Z,3.30
2018-02-27T00:31:28.563Z,3.33
2018-02-27T00:33:55.964Z,2.97
2018-02-27T00:36:23.363Z,3.03
2018-02-27T00:38:50.751Z,2.90
2018-02-27T00:41:18.175Z,3.00
2018-02-27T00:43:45.539Z,3.27
2018-02-27T00:46:12.890Z,3.50
2018-02-27T00:48:40.305Z,3.30
2018-02-27T00:51:07.702Z,3.00
2018-02-27T00:53:35.087Z,2.90
2018-02-27T00:56:02.568Z,3.10
2018-02-27T00:58:30.030Z,3.00
2018-02-27T01:00:57.423Z,3.00
2018-02-27T01:03:24.770Z,2.90
2018-02-27T01:05:52.196Z,3.20
2018-02-27T01:08:19.562Z,2.90
2018-02-27T01:10:46.917Z,2.87
2018-02-27T01:13:14.284Z,2.80
2018-02-27T01:15:41.656Z,2.90
2018-02-27T01:18:09.128Z,2.77
2018-02-27T01:20:36.477Z,3.20
2018-02-27T01:23:03.918Z,3.03
2018-02-27T01:25:31.272Z,3.00
2018-02-27T01:27:58.676Z,3.30
2018-02-27T01:30:26.048Z,2.87
2018-02-27T01:32:53.434Z,3.10
2018-02-27T01:35:20.782Z,3.27
2018-02-27T01:37:48.169Z,3.00
2018-02-27T01:40:15.567Z,3.10
2018-02-27T01:42:42.904Z,3.30
2018-02-27T01:45:10.451Z,3.00
2018-02-27T01:47:37.874Z,3.13
2018-02-27T01:50:05.339Z,3.03
2018-02-27T01:52:32.693Z,3.30
2018-02-27T01:55:00.131Z,2.93
2018-02-27T01:57:27.521Z,2.90
2018-02-27T01:59:54.880Z,3.10
2018-02-27T02:02:22.324Z,3.20
2018-02-27T02:04:49.712Z,3.10
2018-02-27T02:07:17.137Z,3.33
2018-02-27T02:09:44.489Z,2.90
2018-02-27T02:12:11.872Z,3.03
2018-02-27T02:14:39.234Z,3.27
2018-02-27T02:17:06.669Z,2.87
2018-02-27T02:19:34.090Z,3.23
2018-02-27T02:22:01.507Z,3.10
2018-02-27T02:24:28.877Z,3.33
2018-02-27T02:26:56.209Z,3.03
2018-02-27T02:29:23.600Z,2.93
2018-02-27T02:31:50.974Z,2.70
2018-02-27T02:34:18.387Z,3.50
2018-02-27T02:36:45.757Z,2.90
2018-02-27T02:39:13.104Z,2.90
2018-02-27T02:41:40.500Z,2.70
2018-02-27T02:44:07.918Z,3.10
2018-02-27T02:46:35.275Z,2.90
2018-02-27T02:49:10.143Z,3.40
2018-02-27T02:51:37.510Z,2.90
2018-02-27T02:54:04.939Z,2.87
2018-02-27T02:56:32.322Z,2.97
2018-02-27T02:58:59.668Z,3.20
2018-02-27T03:01:27.046Z,3.10
2018-02-27T03:03:54.390Z,3.13
2018-02-27T03:06:21.725Z,3.00
2018-02-27T03:08:49.087Z,3.07
2018-02-27T03:11:16.487Z,3.10
2018-02-27T03:13:43.877Z,2.90
2018-02-27T03:16:11.246Z,3.10
2018-02-27T03:18:38.695Z,3.47
2018-02-27T03:21:06.100Z,3.20
2018-02-27T03:23:33.438Z,3.10
2018-02-27T03:26:00.814Z,3.33
2018-02-27T03:28:28.223Z,3.20
2018-02-27T03:30:55.563Z,3.20
2018-02-27T03:33:22.948Z,3.00
2018-02-27T03:35:50.351Z,3.00
2018-02-27T03:38:17.979Z,3.37
2018-02-27T03:40:45.323Z,3.00
2018-02-27T03:43:12.672Z,3.13
2018-02-27T03:45:40.133Z,3.50
2018-02-27T03:48:07.496Z,3.27
2018-02-27T03:50:34.985Z,3.50
2018-02-27T03:53:02.389Z,3.20
2018-02-27T03:55:29.736Z,3.40
2018-02-27T03:57:57.073Z,3.10
2018-02-27T04:00:24.425Z,3.37
2018-02-27T04:02:51.827Z,3.30
2018-02-27T04:05:19.183Z,3.20
2018-02-27T04:07:46.568Z,3.37
2018-02-27T04:10:13.911Z,3.20
2018-02-27T04:12:41.315Z,3.60
2018-02-27T04:15:08.658Z,3.27
2018-02-27T04:17:36.034Z,3.20
2018-02-27T04:20:03.497Z,3.30
2018-02-27T04:22:30.847Z,3.30
2018-02-27T04:24:58.234Z,3.20
2018-02-27T04:27:25.584Z,3.07
2018-02-27T04:29:53.071Z,3.27
2018-02-27T04:32:20.443Z,3.30
2018-02-27T04:34:47.825Z,3.20
2018-02-27T04:37:15.190Z,3.17
2018-02-27T04:39:42.601Z,3.07
2018-02-27T04:42:10.070Z,3.20
2018-02-27T04:44:37.436Z,3.00
2018-02-27T04:47:04.831Z,5.23
2018-02-27T04:49:32.214Z,3.53
2018-02-27T04:51:59.708Z,3.30
2018-02-27T04:54:27.051Z,4.70
2018-02-27T04:56:54.386Z,4.47
2018-02-27T04:59:21.726Z,3.20
2018-02-27T05:01:49.091Z,3.20
2018-02-27T05:04:16.442Z,3.33
2018-02-27T05:06:43.785Z,3.00
2018-02-27T05:09:11.267Z,3.60
2018-02-27T05:11:39.064Z,3.73
2018-02-27T05:14:06.434Z,4.13
2018-02-27T05:16:33.778Z,4.90
2018-02-27T05:19:01.189Z,4.53
2018-02-27T05:21:28.603Z,4.83
2018-02-27T05:23:56.014Z,4.40
2018-02-27T05:26:23.356Z,4.53
2018-02-27T05:28:50.742Z,4.13
2018-02-27T05:31:18.077Z,4.50
2018-02-27T05:33:45.437Z,4.37
2018-02-27T05:36:12.837Z,4.20
2018-02-27T05:38:40.200Z,4.17
2018-02-27T05:41:07.575Z,4.10
2018-02-27T05:43:34.934Z,4.20
2018-02-27T05:46:02.308Z,4.00
2018-02-27T05:48:29.698Z,4.00
2018-02-27T05:50:57.060Z,3.83
2018-02-27T05:53:24.435Z,3.90
2018-02-27T05:55:51.770Z,3.87
2018-02-27T05:58:19.202Z,3.80
2018-02-27T06:00:46.529Z,4.20
2018-02-27T06:03:13.892Z,4.10
2018-02-27T06:05:41.242Z,4.70
2018-02-27T06:08:08.642Z,4.37
2018-02-27T06:10:36.054Z,3.83
2018-02-27T06:13:03.481Z,4.00
2018-02-27T06:15:30.795Z,4.27
2018-02-27T06:17:58.220Z,4.73
2018-02-27T06:20:25.619Z,3.83
2018-02-27T06:22:53.020Z,4.07
2018-02-27T06:25:20.384Z,4.00
2018-02-27T06:27:47.733Z,4.37
2018-02-27T06:30:15.140Z,4.40
2018-02-27T06:32:46.647Z,4.30
2018-02-27T06:35:14.387Z,4.23
2018-02-27T06:37:41.740Z,4.30
2018-02-27T06:40:09.244Z,4.37
2018-02-27T06:42:36.612Z,4.40
2018-02-27T06:45:05.094Z,4.20
2018-02-27T06:47:33.768Z,3.80
2018-02-27T06:50:01.414Z,4.10
2018-02-27T06:52:28.886Z,4.50
2018-02-27T06:54:56.295Z,3.83
2018-02-27T06:57:23.873Z,4.30
2018-02-27T06:59:51.236Z,4.50
2018-02-27T07:02:18.589Z,4.30
2018-02-27T07:04:46.722Z,4.53
2018-02-27T07:07:14.349Z,4.67
2018-02-27T07:09:42.315Z,4.93
2018-02-27T07:12:09.804Z,4.23
2018-02-27T07:14:37.230Z,4.50
2018-02-27T07:17:04.592Z,4.47
2018-02-27T07:19:32.118Z,4.80
2018-02-27T07:21:59.797Z,5.13
2018-02-27T07:24:27.183Z,5.63
2018-02-27T07:26:54.589Z,6.37
2018-02-27T07:29:22.098Z,6.80
2018-02-27T07:31:49.506Z,6.43
2018-02-27T07:34:16.945Z,6.37
2018-02-27T07:36:44.315Z,6.83
2018-02-27T07:39:11.904Z,7.50
2018-02-27T07:41:39.395Z,6.37
2018-02-27T07:44:06.809Z,6.97
2018-02-27T07:46:34.766Z,6.00
2018-02-27T07:49:02.577Z,6.83
2018-02-27T07:51:30.261Z,6.63
2018-02-27T07:53:57.656Z,6.37
2018-02-27T07:56:25.016Z,7.30
2018-02-27T07:58:52.658Z,6.87
2018-02-27T08:01:20.061Z,6.80
2018-02-27T08:03:47.432Z,7.43
2018-02-27T08:06:14.791Z,7.37
2018-02-27T08:08:42.397Z,7.60
2018-02-27T08:11:10.029Z,7.17
2018-02-27T08:13:37.967Z,7.83
2018-02-27T08:16:05.335Z,7.80
2018-02-27T08:18:32.796Z,7.90
2018-02-27T08:21:00.162Z,8.03
2018-02-27T08:23:27.635Z,8.20
2018-02-27T08:25:55.021Z,8.23
2018-02-27T08:28:22.423Z,8.00
2018-02-27T08:30:49.967Z,7.40
2018-02-27T08:33:17.379Z,8.53
2018-02-27T08:35:44.854Z,8.00
2018-02-27T08:38:12.824Z,8.17
2018-02-27T08:40:40.222Z,8.17
2018-02-27T08:43:07.774Z,8.10
2018-02-27T08:45:35.207Z,8.70
2018-02-27T08:48:02.894Z,8.17
2018-02-27T08:50:30.384Z,8.33
2018-02-27T08:52:57.796Z,8.00
2018-02-27T08:55:25.167Z,8.00
2018-02-27T08:57:52.752Z,8.37
2018-02-27T09:00:20.211Z,8.00
2018-02-27T09:02:47.689Z,7.93
2018-02-27T09:05:15.219Z,8.57
2018-02-27T09:07:42.601Z,8.47
2018-02-27T09:10:10.147Z,8.13
2018-02-27T09:12:37.691Z,8.67
2018-02-27T09:15:05.055Z,8.23
2018-02-27T09:17:32.515Z,8.30
2018-02-27T09:19:59.902Z,8.03
2018-02-27T09:22:27.277Z,8.47
2018-02-27T09:24:54.935Z,8.50
2018-02-27T09:27:22.594Z,8.97
2018-02-27T09:29:50.509Z,8.23
2018-02-27T09:32:18.169Z,8.63
2018-02-27T09:34:45.599Z,9.03
2018-02-27T09:37:13.221Z,9.27
2018-02-27T09:39:40.657Z,9.43
2018-02-27T09:42:08.114Z,8.83
2018-02-27T09:44:35.780Z,9.10
2018-02-27T09:47:03.151Z,8.83
2018-02-27T09:49:30.596Z,9.33
2018-02-27T09:51:57.986Z,8.80
2018-02-27T09:54:25.438Z,9.50
2018-02-27T09:56:52.814Z,8.73
2018-02-27T09:59:20.336Z,8.77
2018-02-27T10:01:47.778Z,8.53
2018-02-27T10:04:15.139Z,8.77
2018-02-27T10:06:42.535Z,9.03
2018-02-27T10:09:09.970Z,9.03
2018-02-27T10:11:39.006Z,10.40
2018-02-27T10:14:06.475Z,9.00
2018-02-27T10:16:33.898Z,9.23
2018-02-27T10:19:01.309Z,9.30
2018-02-27T10:21:28.755Z,9.50
2018-02-27T10:23:56.153Z,9.10
2018-02-27T10:26:23.701Z,9.03
2018-02-27T10:28:51.152Z,8.93
2018-02-27T10:31:19.641Z,9.37
2018-02-27T10:33:47.003Z,8.57
2018-02-27T10:36:14.766Z,9.17
2018-02-27T10:38:42.205Z,9.70
2018-02-27T10:41:09.630Z,8.77
2018-02-27T10:43:37.330Z,9.50
2018-02-27T10:46:04.852Z,9.97
2018-02-27T10:48:32.431Z,9.80
2018-02-27T10:50:59.826Z,9.73
2018-02-27T10:53:27.258Z,9.23
2018-02-27T10:55:54.687Z,10.03
2018-02-27T10:58:22.187Z,9.27
2018-02-27T11:00:49.637Z,9.00
2018-02-27T11:03:17.073Z,9.10
2018-02-27T11:05:44.525Z,9.17
2018-02-27T11:08:12.020Z,9.40
2018-02-27T11:10:40.050Z,8.87
2018-02-27T11:13:07.444Z,8.93
2018-02-27T11:15:34.807Z,8.53
2018-02-27T11:18:02.206Z,8.77
2018-02-27T11:20:29.690Z,8.83
2018-02-27T11:22:58.371Z,8.70
2018-02-27T11:25:25.892Z,8.23
2018-02-27T11:27:53.527Z,9.40
2018-02-27T11:30:20.975Z,9.03
2018-02-27T11:32:49.507Z,8.50
2018-02-27T11:35:17.113Z,8.17
2018-02-27T11:37:44.668Z,8.60
2018-02-27T11:40:12.085Z,7.97
2018-02-27T11:42:39.464Z,9.00
2018-02-27T11:45:06.872Z,8.13
2018-02-27T11:47:34.220Z,8.10
2018-02-27T11:50:01.611Z,7.90
2018-02-27T11:52:29.047Z,7.93
2018-02-27T11:54:56.487Z,8.40
2018-02-27T11:57:23.930Z,7.53
2018-02-27T11:59:51.454Z,7.23
2018-02-27T12:02:18.828Z,8.10
2018-02-27T12:04:46.225Z,7.83
2018-02-27T12:07:13.587Z,7.77
2018-02-27T12:09:41.018Z,7.40
2018-02-27T12:12:08.417Z,7.97
2018-02-27T12:14:35.832Z,7.63
2018-02-27T12:17:03.963Z,7.83
2018-02-27T12:19:31.435Z,7.60
2018-02-27T12:21:58.825Z,6.90
2018-02-27T12:24:26.178Z,7.53
2018-02-27T12:26:53.657Z,7.60
2018-02-27T12:29:21.068Z,7.63
2018-02-27T12:31:48.454Z,7.20
2018-02-27T12:34:15.890Z,7.37
2018-02-27T12:36:43.390Z,7.57
2018-02-27T12:39:10.812Z,7.33
2018-02-27T12:41:38.226Z,6.47
2018-02-27T12:44:05.661Z,7.30
2018-02-27T12:46:33.085Z,7.27
2018-02-27T12:49:00.475Z,6.73
2018-02-27T12:51:27.890Z,7.27
2018-02-27T12:53:55.373Z,7.17
2018-02-27T12:56:22.818Z,6.97
2018-02-27T12:58:50.574Z,7.03
2018-02-27T13:01:17.999Z,7.30
2018-02-27T13:03:45.515Z,7.10
2018-02-27T13:06:12.987Z,7.60
2018-02-27T13:08:40.380Z,7.23
2018-02-27T13:11:08.175Z,7.73
2018-02-27T13:13:37.273Z,7.60
2018-02-27T13:16:04.726Z,7.50
2018-02-27T13:18:32.207Z,7.30
2018-02-27T13:20:59.634Z,8.00
2018-02-27T13:23:27.050Z,7.40
2018-02-27T13:25:54.834Z,8.00
2018-02-27T13:28:23.029Z,6.97
2018-02-27T13:30:50.586Z,7.83
2018-02-27T13:33:18.010Z,7.60
2018-02-27T13:35:45.425Z,7.50
2018-02-27T13:38:12.795Z,7.80
2018-02-27T13:40:40.252Z,8.17
2018-02-27T13:43:08.580Z,7.70
2018-02-27T13:45:35.988Z,7.23
2018-02-27T13:48:03.445Z,8.57
2018-02-27T13:50:31.008Z,7.53
2018-02-27T13:52:58.400Z,7.77
2018-02-27T13:55:25.928Z,7.80
2018-02-27T13:57:53.466Z,8.50
2018-02-27T14:00:21.045Z,8.47
2018-02-27T14:02:48.499Z,8.20
2018-02-27T14:05:15.910Z,8.20
2018-02-27T14:07:43.362Z,7.80
2018-02-27T14:10:11.643Z,8.70
2018-02-27T14:12:39.010Z,8.57
2018-02-27T14:15:06.383Z,8.77
2018-02-27T14:17:33.850Z,8.73
2018-02-27T14:20:01.449Z,9.43
2018-02-27T14:22:28.929Z,9.30
2018-02-27T14:24:56.450Z,9.47
2018-02-27T14:27:23.929Z,9.67
2018-02-27T14:29:51.401Z,9.87
2018-02-27T14:32:18.919Z,10.20
2018-02-27T14:34:46.450Z,10.13
2018-02-27T14:37:13.923Z,9.70
2018-02-27T14:39:41.396Z,10.30
2018-02-27T14:42:08.876Z,10.63
2018-02-27T14:44:37.099Z,10.23
2018-02-27T14:47:04.537Z,10.33
2018-02-27T14:49:31.969Z,9.70
2018-02-27T14:51:59.389Z,10.37
2018-02-27T14:54:27.088Z,10.20
2018-02-27T14:56:55.424Z,10.07
2018-02-27T14:59:33.656Z,10.80
2018-02-27T15:02:01.981Z,10.87
2018-02-27T15:04:37.887Z,10.23
2018-02-27T15:07:08.731Z,10.47
2018-02-27T15:09:37.690Z,10.43
2018-02-27T15:12:05.198Z,10.93
2018-02-27T15:14:32.627Z,10.40
2018-02-27T15:16:59.995Z,11.10
2018-02-27T15:19:27.728Z,11.33
2018-02-27T15:21:55.174Z,10.80
2018-02-27T15:24:22.761Z,10.27
2018-02-27T15:26:50.167Z,10.43
2018-02-27T15:29:17.538Z,10.90
2018-02-27T15:31:45.277Z,11.67
2018-02-27T15:34:12.714Z,11.67
2018-02-27T15:36:40.797Z,10.80
2018-02-27T15:39:08.274Z,12.20
2018-02-27T15:41:35.873Z,11.40
2018-02-27T15:44:03.505Z,11.43
2018-02-27T15:46:30.918Z,11.83
2018-02-27T15:48:58.304Z,11.47
2018-02-27T15:51:25.777Z,11.17
2018-02-27T15:53:53.333Z,11.60
2018-02-27T15:56:21.896Z,12.07
2018-02-27T15:58:49.725Z,11.40
2018-02-27T16:01:17.411Z,11.67
2018-02-27T16:03:46.125Z,12.53
2018-02-27T16:06:14.089Z,12.30
2018-02-27T16:08:42.048Z,13.10
2018-02-27T16:11:09.984Z,13.27
2018-02-27T16:13:37.682Z,13.63
2018-02-27T16:16:05.648Z,13.23
2018-02-27T16:18:33.356Z,13.73
2018-02-27T16:21:00.749Z,13.60
2018-02-27T16:23:28.632Z,14.10
2018-02-27T16:25:56.096Z,12.63
2018-02-27T16:28:23.560Z,13.40
2018-02-27T16:30:51.004Z,12.83
2018-02-27T16:33:18.469Z,13.63
2018-02-27T16:35:45.897Z,12.97
2018-02-27T16:38:13.286Z,12.77
2018-02-27T16:40:42.620Z,13.23
2018-02-27T16:43:10.297Z,13.90
2018-02-27T16:45:37.828Z,13.07
2018-02-27T16:48:06.364Z,12.37
2018-02-27T16:50:33.881Z,11.63
2018-02-27T16:53:01.305Z,11.97
2018-02-27T16:55:29.183Z,11.17
2018-02-27T16:57:56.603Z,10.97
2018-02-27T17:00:24.250Z,10.40
2018-02-27T17:02:51.633Z,10.97
2018-02-27T17:05:19.049Z,10.63
2018-02-27T17:07:46.453Z,10.90
2018-02-27T17:10:13.818Z,10.30
2018-02-27T17:12:41.302Z,10.97
2018-02-27T17:15:08.657Z,10.27
2018-02-27T17:17:36.109Z,10.30
2018-02-27T17:20:03.459Z,10.57
2018-02-27T17:22:30.818Z,10.93
2018-02-27T17:24:58.407Z,10.47
2018-02-27T17:27:25.773Z,10.37
2018-02-27T17:29:53.151Z,10.03
2018-02-27T17:32:20.498Z,10.60
2018-02-27T17:34:47.918Z,10.00
2018-02-27T17:37:15.379Z,9.90
2018-02-27T17:39:42.722Z,9.70
2018-02-27T17:42:10.166Z,8.80
2018-02-27T17:44:37.570Z,8.43
2018-02-27T17:47:05.010Z,8.90
2018-02-27T17:49:32.372Z,8.03
2018-02-27T17:51:59.754Z,8.60
2018-02-27T17:54:27.132Z,8.07
2018-02-27T17:56:54.480Z,8.27
2018-02-27T17:59:21.817Z,7.37
2018-02-27T18:01:49.165Z,7.77
2018-02-27T18:04:16.507Z,7.40
2018-02-27T18:06:43.903Z,7.90
2018-02-27T18:09:11.246Z,7.37
2018-02-27T18:11:38.578Z,8.10
2018-02-27T18:14:05.996Z,7.37
2018-02-27T18:16:33.393Z,7.37
2018-02-27T18:19:00.750Z,7.40
2018-02-27T18:21:28.083Z,7.30
2018-02-27T18:23:55.458Z,7.40
2018-02-27T18:26:22.844Z,6.77
2018-02-27T18:28:50.192Z,7.20
2018-02-27T18:31:17.546Z,7.43
2018-02-27T18:33:44.934Z,7.40
2018-02-27T18:36:12.308Z,7.30
2018-02-27T18:38:39.667Z,7.23
2018-02-27T18:41:07.067Z,7.37
2018-02-27T18:43:34.408Z,6.87
2018-02-27T18:46:01.739Z,6.83
2018-02-27T18:48:29.079Z,6.57
2018-02-27T18:50:56.480Z,6.40
2018-02-27T18:53:23.818Z,6.80
2018-02-27T18:55:51.162Z,6.87
2018-02-27T18:58:18.576Z,6.33
2018-02-27T19:00:45.989Z,6.07
2018-02-27T19:03:13.331Z,6.03
2018-02-27T19:05:40.681Z,6.33
2018-02-27T19:08:08.147Z,6.00
2018-02-27T19:10:35.504Z,6.07
2018-02-27T19:13:02.950Z,6.20
2018-02-27T19:15:30.298Z,6.40
2018-02-27T19:17:57.740Z,6.10
2018-02-27T19:20:25.135Z,5.93
2018-02-27T19:22:52.486Z,5.83
2018-02-27T19:25:19.907Z,6.17
2018-02-27T19:27:47.254Z,6.10
2018-02-27T19:30:14.615Z,6.50
2018-02-27T19:32:42.051Z,5.83
2018-02-27T19:35:09.495Z,5.97
2018-02-27T19:37:36.942Z,6.10
2018-02-27T19:40:04.337Z,5.77
2018-02-27T19:42:31.692Z,5.97
2018-02-27T19:44:59.061Z,5.33
2018-02-27T19:47:26.461Z,5.87
2018-02-27T19:49:53.811Z,5.73
2018-02-27T19:52:21.155Z,5.87
2018-02-27T19:54:48.542Z,6.00
2018-02-27T19:57:15.909Z,5.87
2018-02-27T19:59:43.286Z,5.77
2018-02-27T20:02:10.642Z,5.90
2018-02-27T20:04:38.031Z,6.13
2018-02-27T20:07:05.383Z,5.77
2018-02-27T20:09:32.781Z,5.37
2018-02-27T20:12:00.123Z,5.53
2018-02-27T20:14:27.465Z,5.83
2018-02-27T20:16:54.809Z,5.60
2018-02-27T20:19:22.194Z,5.20
2018-02-27T20:21:49.542Z,5.30
2018-02-27T20:24:16.900Z,5.50
2018-02-27T20:26:44.248Z,5.40
2018-02-27T20:29:11.630Z,5.87
2018-02-27T20:31:38.972Z,5.53
2018-02-27T20:34:06.315Z,6.07
2018-02-27T20:36:33.652Z,6.10
2018-02-27T20:39:01.034Z,5.80
2018-02-27T20:41:28.371Z,5.67
2018-02-27T20:43:55.756Z,6.03
2018-02-27T20:46:23.095Z,5.50
2018-02-27T20:48:50.482Z,5.47
2018-02-27T20:51:17.818Z,5.37
2018-02-27T20:53:45.153Z,5.60
2018-02-27T20:56:12.498Z,5.67
2018-02-27T20:58:39.838Z,5.03
2018-02-27T21:01:07.220Z,5.40
2018-02-27T21:03:34.555Z,5.70
2018-02-27T21:06:01.939Z,4.93
2018-02-27T21:08:30.319Z,4.63
2018-02-27T21:10:57.659Z,5.20
2018-02-27T21:13:24.995Z,5.40
2018-02-27T21:15:52.335Z,4.83
2018-02-27T21:18:19.681Z,5.00
2018-02-27T21:20:47.060Z,5.00
2018-02-27T21:23:14.509Z,4.60
2018-02-27T21:25:41.855Z,4.80
2018-02-27T21:28:09.270Z,4.87
2018-02-27T21:30:36.688Z,4.67
2018-02-27T21:33:04.025Z,4.77
2018-02-27T21:35:31.368Z,5.10
2018-02-27T21:37:58.746Z,4.87
2018-02-27T21:40:29.271Z,4.93
2018-02-27T21:42:56.616Z,4.80
2018-02-27T21:45:23.995Z,5.10
2018-02-27T21:47:51.434Z,4.53
2018-02-27T21:50:18.801Z,4.93
2018-02-27T21:52:46.190Z,5.10
2018-02-27T21:55:13.543Z,5.00
2018-02-27T21:57:40.953Z,5.00
2018-02-27T22:00:08.381Z,4.90
2018-02-27T22:02:35.887Z,4.30
2018-02-27T22:05:03.282Z,4.70
2018-02-27T22:07:30.664Z,4.63
2018-02-27T22:09:58.063Z,4.80
2018-02-27T22:12:25.398Z,4.60
2018-02-27T22:14:52.782Z,4.80
2018-02-27T22:17:20.142Z,4.90
2018-02-27T22:19:47.491Z,4.90
2018-02-27T22:22:14.950Z,5.17
2018-02-27T22:24:42.282Z,4.83
2018-02-27T22:27:09.694Z,4.47
2018-02-27T22:29:37.131Z,4.60
2018-02-27T22:32:04.673Z,4.90
2018-02-27T22:34:32.060Z,4.70
2018-02-27T22:36:59.471Z,4.47
2018-02-27T22:39:26.823Z,4.57
2018-02-27T22:41:54.251Z,4.33
2018-02-27T22:44:21.693Z,4.90
2018-02-27T22:46:49.173Z,4.40
2018-02-27T22:49:16.657Z,4.70
2018-02-27T22:51:44.184Z,4.53
2018-02-27T22:54:11.570Z,4.37
2018-02-27T22:56:39.045Z,4.20
2018-02-27T22:59:06.630Z,4.27
2018-02-27T23:01:34.016Z,4.23
2018-02-27T23:04:01.398Z,4.40
2018-02-27T23:06:28.844Z,4.70
2018-02-27T23:08:56.251Z,4.33
2018-02-27T23:11:23.693Z,4.50
2018-02-27T23:13:51.082Z,4.17
2018-02-27T23:16:18.518Z,4.50
2018-02-27T23:18:46.067Z,4.20
2018-02-27T23:21:13.453Z,4.30
2018-02-27T23:23:40.893Z,4.13
2018-02-27T23:26:08.319Z,4.20
2018-02-27T23:28:35.737Z,3.90
2018-02-27T23:31:03.183Z,4.10
2018-02-27T23:33:30.583Z,4.10
2018-02-27T23:35:58.010Z,4.40
2018-02-27T23:38:25.466Z,4.13
2018-02-27T23:40:52.896Z,4.50
2018-02-27T23:43:20.330Z,3.97
2018-02-27T23:45:47.750Z,4.17
2018-02-27T23:48:15.144Z,4.07
2018-02-27T23:50:42.575Z,4.30
2018-02-27T23:53:10.075Z,4.47
2018-02-27T23:55:37.457Z,4.13
2018-02-27T23:58:04.837Z,4.10
